sensor_id;sensor_type;location;lat;lon;timestamp;temperature;humidity
77829;DHT22;67019;51.034;3.728;2023-05-21T00:02:25;15.30;92.00
77829;DHT22;67019;51.034;3.728;2023-05-21T00:04:54;15.30;91.50
77829;DHT22;67019;51.034;3.728;2023-05-21T00:07:22;15.40;91.40
77829;DHT22;67019;51.034;3.728;2023-05-21T00:09:50;15.30;91.50
77829;DHT22;67019;51.034;3.728;2023-05-21T00:12:18;15.30;91.90
77829;DHT22;67019;51.034;3.728;2023-05-21T00:14:46;15.30;92.00
77829;DHT22;67019;51.034;3.728;2023-05-21T00:17:13;15.20;91.50
77829;DHT22;67019;51.034;3.728;2023-05-21T00:19:41;15.20;91.40
77829;DHT22;67019;51.034;3.728;2023-05-21T00:22:08;15.00;91.70
77829;DHT22;67019;51.034;3.728;2023-05-21T00:24:36;15.00;92.20
77829;DHT22;67019;51.034;3.728;2023-05-21T00:27:04;15.20;91.30
77829;DHT22;67019;51.034;3.728;2023-05-21T00:29:31;14.90;91.50
77829;DHT22;67019;51.034;3.728;2023-05-21T00:31:59;15.00;91.50
77829;DHT22;67019;51.034;3.728;2023-05-21T00:34:26;14.90;91.50
77829;DHT22;67019;51.034;3.728;2023-05-21T00:36:55;17.90;92.20
77829;DHT22;67019;51.034;3.728;2023-05-21T00:39:23;14.90;92.00
77829;DHT22;67019;51.034;3.728;2023-05-21T00:41:50;14.80;91.40
77829;DHT22;67019;51.034;3.728;2023-05-21T00:44:18;15.00;91.00
77829;DHT22;67019;51.034;3.728;2023-05-21T00:46:46;16.40;91.80
77829;DHT22;67019;51.034;3.728;2023-05-21T00:49:14;14.90;90.90
77829;DHT22;67019;51.034;3.728;2023-05-21T00:51:42;14.80;91.20
77829;DHT22;67019;51.034;3.728;2023-05-21T00:54:10;14.60;91.40
77829;DHT22;67019;51.034;3.728;2023-05-21T00:56:38;14.60;91.40
77829;DHT22;67019;51.034;3.728;2023-05-21T00:59:06;14.60;91.80
77829;DHT22;67019;51.034;3.728;2023-05-21T01:01:34;14.80;91.30
77829;DHT22;67019;51.034;3.728;2023-05-21T01:04:02;14.80;90.60
77829;DHT22;67019;51.034;3.728;2023-05-21T01:06:30;14.70;90.80
77829;DHT22;67019;51.034;3.728;2023-05-21T01:09:01;14.60;91.20
77829;DHT22;67019;51.034;3.728;2023-05-21T01:11:49;14.70;90.90
77829;DHT22;67019;51.034;3.728;2023-05-21T01:14:18;14.70;90.90
77829;DHT22;67019;51.034;3.728;2023-05-21T01:16:48;14.60;90.60
77829;DHT22;67019;51.034;3.728;2023-05-21T01:19:19;14.60;91.10
77829;DHT22;67019;51.034;3.728;2023-05-21T01:21:52;14.60;91.30
77829;DHT22;67019;51.034;3.728;2023-05-21T01:24:21;14.40;91.20
77829;DHT22;67019;51.034;3.728;2023-05-21T01:26:49;14.30;91.70
77829;DHT22;67019;51.034;3.728;2023-05-21T01:29:17;14.50;91.80
77829;DHT22;67019;51.034;3.728;2023-05-21T01:34:47;14.60;90.90
77829;DHT22;67019;51.034;3.728;2023-05-21T01:37:34;14.50;91.00
77829;DHT22;67019;51.034;3.728;2023-05-21T01:40:03;14.60;90.90
77829;DHT22;67019;51.034;3.728;2023-05-21T01:42:26;14.60;91.30
77829;DHT22;67019;51.034;3.728;2023-05-21T01:44:55;14.30;91.60
77829;DHT22;67019;51.034;3.728;2023-05-21T01:47:23;14.40;92.20
77829;DHT22;67019;51.034;3.728;2023-05-21T01:49:53;14.80;92.00
77829;DHT22;67019;51.034;3.728;2023-05-21T01:52:20;14.30;92.10
77829;DHT22;67019;51.034;3.728;2023-05-21T01:54:48;14.20;92.40
77829;DHT22;67019;51.034;3.728;2023-05-21T01:57:16;14.20;92.90
77829;DHT22;67019;51.034;3.728;2023-05-21T01:59:44;14.30;92.70
77829;DHT22;67019;51.034;3.728;2023-05-21T02:02:13;14.20;93.20
77829;DHT22;67019;51.034;3.728;2023-05-21T02:04:40;14.00;93.30
77829;DHT22;67019;51.034;3.728;2023-05-21T02:07:09;14.00;93.20
77829;DHT22;67019;51.034;3.728;2023-05-21T02:09:38;14.00;93.60
77829;DHT22;67019;51.034;3.728;2023-05-21T02:12:06;14.00;93.20
77829;DHT22;67019;51.034;3.728;2023-05-21T02:14:34;14.10;93.20
77829;DHT22;67019;51.034;3.728;2023-05-21T02:17:03;14.00;93.60
77829;DHT22;67019;51.034;3.728;2023-05-21T02:19:31;14.10;93.50
77829;DHT22;67019;51.034;3.728;2023-05-21T02:21:59;11.80;92.60
77829;DHT22;67019;51.034;3.728;2023-05-21T02:24:26;14.00;93.10
77829;DHT22;67019;51.034;3.728;2023-05-21T02:26:54;14.10;93.40
77829;DHT22;67019;51.034;3.728;2023-05-21T02:29:22;14.00;93.90
77829;DHT22;67019;51.034;3.728;2023-05-21T02:31:49;13.90;93.80
77829;DHT22;67019;51.034;3.728;2023-05-21T02:34:17;13.90;94.20
77829;DHT22;67019;51.034;3.728;2023-05-21T02:36:46;13.90;93.60
77829;DHT22;67019;51.034;3.728;2023-05-21T02:39:20;13.70;93.60
77829;DHT22;67019;51.034;3.728;2023-05-21T02:41:47;13.90;93.60
77829;DHT22;67019;51.034;3.728;2023-05-21T02:44:15;13.80;93.70
77829;DHT22;67019;51.034;3.728;2023-05-21T02:46:44;13.80;94.10
77829;DHT22;67019;51.034;3.728;2023-05-21T02:49:12;14.00;93.50
77829;DHT22;67019;51.034;3.728;2023-05-21T02:51:39;13.80;94.20
77829;DHT22;67019;51.034;3.728;2023-05-21T02:54:07;13.90;94.00
77829;DHT22;67019;51.034;3.728;2023-05-21T02:56:34;15.20;93.50
77829;DHT22;67019;51.034;3.728;2023-05-21T02:59:02;14.00;93.20
77829;DHT22;67019;51.034;3.728;2023-05-21T03:01:29;13.90;93.60
77829;DHT22;67019;51.034;3.728;2023-05-21T03:03:57;13.90;93.40
77829;DHT22;67019;51.034;3.728;2023-05-21T03:06:24;13.80;93.80
77829;DHT22;67019;51.034;3.728;2023-05-21T03:08:52;14.00;92.90
77829;DHT22;67019;51.034;3.728;2023-05-21T03:11:20;13.90;93.00
77829;DHT22;67019;51.034;3.728;2023-05-21T03:16:15;14.00;92.90
77829;DHT22;67019;51.034;3.728;2023-05-21T03:18:43;13.90;93.60
77829;DHT22;67019;51.034;3.728;2023-05-21T03:21:11;14.10;92.50
77829;DHT22;67019;51.034;3.728;2023-05-21T03:23:40;14.00;92.40
77829;DHT22;67019;51.034;3.728;2023-05-21T03:26:08;14.20;92.30
77829;DHT22;67019;51.034;3.728;2023-05-21T03:28:36;14.10;92.50
77829;DHT22;67019;51.034;3.728;2023-05-21T03:31:04;14.20;92.40
77829;DHT22;67019;51.034;3.728;2023-05-21T03:33:32;14.10;92.70
77829;DHT22;67019;51.034;3.728;2023-05-21T03:35:59;14.00;93.00
77829;DHT22;67019;51.034;3.728;2023-05-21T03:38:27;14.10;93.50
77829;DHT22;67019;51.034;3.728;2023-05-21T03:40:54;14.30;93.10
77829;DHT22;67019;51.034;3.728;2023-05-21T03:43:22;14.20;93.70
77829;DHT22;67019;51.034;3.728;2023-05-21T03:45:50;14.20;93.30
77829;DHT22;67019;51.034;3.728;2023-05-21T03:48:17;14.00;93.90
77829;DHT22;67019;51.034;3.728;2023-05-21T03:50:45;13.80;94.20
77829;DHT22;67019;51.034;3.728;2023-05-21T03:53:12;14.80;94.20
77829;DHT22;67019;51.034;3.728;2023-05-21T03:55:40;14.10;94.40
77829;DHT22;67019;51.034;3.728;2023-05-21T03:58:07;14.10;93.90
77829;DHT22;67019;51.034;3.728;2023-05-21T04:00:36;14.10;94.40
77829;DHT22;67019;51.034;3.728;2023-05-21T04:03:04;14.00;94.80
77829;DHT22;67019;51.034;3.728;2023-05-21T04:05:32;13.80;94.60
77829;DHT22;67019;51.034;3.728;2023-05-21T04:08:00;14.00;95.10
77829;DHT22;67019;51.034;3.728;2023-05-21T04:10:27;14.10;95.00
77829;DHT22;67019;51.034;3.728;2023-05-21T04:12:55;14.10;94.40
77829;DHT22;67019;51.034;3.728;2023-05-21T04:15:22;14.20;94.30
77829;DHT22;67019;51.034;3.728;2023-05-21T04:17:51;14.10;94.40
77829;DHT22;67019;51.034;3.728;2023-05-21T04:20:19;14.10;94.60
77829;DHT22;67019;51.034;3.728;2023-05-21T04:22:46;14.00;94.80
77829;DHT22;67019;51.034;3.728;2023-05-21T04:25:14;14.00;95.20
77829;DHT22;67019;51.034;3.728;2023-05-21T04:30:11;14.00;94.60
77829;DHT22;67019;51.034;3.728;2023-05-21T04:32:39;14.00;94.80
77829;DHT22;67019;51.034;3.728;2023-05-21T04:35:07;14.00;94.80
77829;DHT22;67019;51.034;3.728;2023-05-21T04:37:35;14.00;95.30
77829;DHT22;67019;51.034;3.728;2023-05-21T04:40:05;14.10;94.90
77829;DHT22;67019;51.034;3.728;2023-05-21T04:42:34;14.30;94.70
77829;DHT22;67019;51.034;3.728;2023-05-21T04:45:02;14.20;94.60
77829;DHT22;67019;51.034;3.728;2023-05-21T04:47:30;14.30;94.90
77829;DHT22;67019;51.034;3.728;2023-05-21T04:50:00;14.20;95.10
77829;DHT22;67019;51.034;3.728;2023-05-21T04:52:27;14.20;95.10
77829;DHT22;67019;51.034;3.728;2023-05-21T04:54:55;14.40;94.40
77829;DHT22;67019;51.034;3.728;2023-05-21T04:57:23;14.30;94.50
77829;DHT22;67019;51.034;3.728;2023-05-21T04:59:50;14.20;94.90
77829;DHT22;67019;51.034;3.728;2023-05-21T05:02:18;14.10;95.10
77829;DHT22;67019;51.034;3.728;2023-05-21T05:04:45;14.20;95.10
77829;DHT22;67019;51.034;3.728;2023-05-21T05:07:13;14.50;94.70
77829;DHT22;67019;51.034;3.728;2023-05-21T05:09:42;14.60;94.70
77829;DHT22;67019;51.034;3.728;2023-05-21T05:12:10;14.40;95.00
77829;DHT22;67019;51.034;3.728;2023-05-21T05:14:38;14.50;95.00
77829;DHT22;67019;51.034;3.728;2023-05-21T05:17:05;14.40;95.00
77829;DHT22;67019;51.034;3.728;2023-05-21T05:19:35;14.30;95.20
77829;DHT22;67019;51.034;3.728;2023-05-21T05:22:03;14.30;95.20
77829;DHT22;67019;51.034;3.728;2023-05-21T05:24:31;14.30;95.60
77829;DHT22;67019;51.034;3.728;2023-05-21T05:26:59;14.60;94.50
77829;DHT22;67019;51.034;3.728;2023-05-21T05:29:26;14.80;94.20
77829;DHT22;67019;51.034;3.728;2023-05-21T05:31:54;15.00;93.90
77829;DHT22;67019;51.034;3.728;2023-05-21T05:34:21;14.90;94.10
77829;DHT22;67019;51.034;3.728;2023-05-21T05:36:49;14.80;94.40
77829;DHT22;67019;51.034;3.728;2023-05-21T05:39:16;15.10;93.40
77829;DHT22;67019;51.034;3.728;2023-05-21T05:41:44;15.10;93.50
77829;DHT22;67019;51.034;3.728;2023-05-21T05:44:13;15.20;93.90
77829;DHT22;67019;51.034;3.728;2023-05-21T05:46:41;15.30;93.60
77829;DHT22;67019;51.034;3.728;2023-05-21T05:49:08;15.20;93.60
77829;DHT22;67019;51.034;3.728;2023-05-21T05:51:36;15.20;93.60
77829;DHT22;67019;51.034;3.728;2023-05-21T05:54:03;15.30;93.90
77829;DHT22;67019;51.034;3.728;2023-05-21T05:56:31;15.50;93.40
77829;DHT22;67019;51.034;3.728;2023-05-21T05:58:59;15.70;93.20
77829;DHT22;67019;51.034;3.728;2023-05-21T06:01:26;15.70;92.80
77829;DHT22;67019;51.034;3.728;2023-05-21T06:03:54;15.90;92.40
77829;DHT22;67019;51.034;3.728;2023-05-21T06:06:22;15.80;92.80
77829;DHT22;67019;51.034;3.728;2023-05-21T06:08:50;15.80;93.10
77829;DHT22;67019;51.034;3.728;2023-05-21T06:11:18;15.80;93.00
77829;DHT22;67019;51.034;3.728;2023-05-21T06:13:47;15.70;93.20
77829;DHT22;67019;51.034;3.728;2023-05-21T06:16:14;15.90;92.50
77829;DHT22;67019;51.034;3.728;2023-05-21T06:18:42;15.90;93.00
77829;DHT22;67019;51.034;3.728;2023-05-21T06:21:09;15.90;92.80
77829;DHT22;67019;51.034;3.728;2023-05-21T06:23:37;16.00;92.40
77829;DHT22;67019;51.034;3.728;2023-05-21T06:26:04;16.00;92.70
77829;DHT22;67019;51.034;3.728;2023-05-21T06:28:32;15.90;92.70
77829;DHT22;67019;51.034;3.728;2023-05-21T06:31:00;16.00;93.20
77829;DHT22;67019;51.034;3.728;2023-05-21T06:33:27;15.90;92.70
77829;DHT22;67019;51.034;3.728;2023-05-21T06:35:55;16.00;92.60
77829;DHT22;67019;51.034;3.728;2023-05-21T06:38:22;16.20;92.70
77829;DHT22;67019;51.034;3.728;2023-05-21T06:40:50;16.00;92.80
77829;DHT22;67019;51.034;3.728;2023-05-21T06:43:17;16.00;93.30
77829;DHT22;67019;51.034;3.728;2023-05-21T06:45:45;15.90;93.30
77829;DHT22;67019;51.034;3.728;2023-05-21T06:48:13;15.90;93.70
77829;DHT22;67019;51.034;3.728;2023-05-21T06:50:43;16.10;93.30
77829;DHT22;67019;51.034;3.728;2023-05-21T06:53:11;16.10;93.40
77829;DHT22;67019;51.034;3.728;2023-05-21T06:55:40;16.30;92.40
77829;DHT22;67019;51.034;3.728;2023-05-21T06:58:10;16.50;92.00
77829;DHT22;67019;51.034;3.728;2023-05-21T07:00:39;16.50;92.50
77829;DHT22;67019;51.034;3.728;2023-05-21T07:03:07;16.60;92.30
77829;DHT22;67019;51.034;3.728;2023-05-21T07:05:36;16.80;92.30
77829;DHT22;67019;51.034;3.728;2023-05-21T07:08:05;17.00;91.30
77829;DHT22;67019;51.034;3.728;2023-05-21T07:10:34;17.00;91.80
77829;DHT22;67019;51.034;3.728;2023-05-21T07:13:01;17.00;91.40
77829;DHT22;67019;51.034;3.728;2023-05-21T07:15:29;17.00;91.80
77829;DHT22;67019;51.034;3.728;2023-05-21T07:17:56;17.00;91.90
77829;DHT22;67019;51.034;3.728;2023-05-21T07:20:24;17.10;91.70
77829;DHT22;67019;51.034;3.728;2023-05-21T07:22:52;16.80;91.80
77829;DHT22;67019;51.034;3.728;2023-05-21T07:25:19;16.60;92.50
77829;DHT22;67019;51.034;3.728;2023-05-21T07:27:47;16.60;92.70
77829;DHT22;67019;51.034;3.728;2023-05-21T07:30:14;16.90;92.10
77829;DHT22;67019;51.034;3.728;2023-05-21T07:32:42;16.80;92.40
77829;DHT22;67019;51.034;3.728;2023-05-21T07:35:10;16.90;91.50
77829;DHT22;67019;51.034;3.728;2023-05-21T07:37:37;16.90;91.60
77829;DHT22;67019;51.034;3.728;2023-05-21T07:40:06;16.90;92.00
77829;DHT22;67019;51.034;3.728;2023-05-21T07:42:34;16.90;91.80
77829;DHT22;67019;51.034;3.728;2023-05-21T07:45:02;16.90;92.10
77829;DHT22;67019;51.034;3.728;2023-05-21T07:47:29;17.00;91.50
77829;DHT22;67019;51.034;3.728;2023-05-21T07:49:57;17.10;92.00
77829;DHT22;67019;51.034;3.728;2023-05-21T07:52:24;17.10;91.90
77829;DHT22;67019;51.034;3.728;2023-05-21T07:54:52;17.30;91.30
77829;DHT22;67019;51.034;3.728;2023-05-21T07:57:20;17.70;90.80
77829;DHT22;67019;51.034;3.728;2023-05-21T07:59:48;17.60;90.70
77829;DHT22;67019;51.034;3.728;2023-05-21T08:02:16;17.80;90.80
77829;DHT22;67019;51.034;3.728;2023-05-21T08:04:44;18.00;90.10
77829;DHT22;67019;51.034;3.728;2023-05-21T08:07:11;17.80;90.10
77829;DHT22;67019;51.034;3.728;2023-05-21T08:09:41;17.80;89.90
77829;DHT22;67019;51.034;3.728;2023-05-21T08:12:08;17.80;90.40
77829;DHT22;67019;51.034;3.728;2023-05-21T08:14:36;18.20;89.60
77829;DHT22;67019;51.034;3.728;2023-05-21T08:17:03;18.00;88.80
77829;DHT22;67019;51.034;3.728;2023-05-21T08:19:31;18.10;89.60
77829;DHT22;67019;51.034;3.728;2023-05-21T08:21:59;18.50;88.70
77829;DHT22;67019;51.034;3.728;2023-05-21T08:24:27;18.80;86.60
77829;DHT22;67019;51.034;3.728;2023-05-21T08:26:54;18.70;87.60
77829;DHT22;67019;51.034;3.728;2023-05-21T08:29:22;18.90;87.10
77829;DHT22;67019;51.034;3.728;2023-05-21T08:31:49;19.30;84.20
77829;DHT22;67019;51.034;3.728;2023-05-21T08:34:17;19.20;85.10
77829;DHT22;67019;51.034;3.728;2023-05-21T08:36:45;19.40;84.10
77829;DHT22;67019;51.034;3.728;2023-05-21T08:39:13;19.10;85.00
77829;DHT22;67019;51.034;3.728;2023-05-21T08:41:42;18.70;85.50
77829;DHT22;67019;51.034;3.728;2023-05-21T08:44:11;18.70;86.30
77829;DHT22;67019;51.034;3.728;2023-05-21T08:46:39;18.60;87.10
77829;DHT22;67019;51.034;3.728;2023-05-21T08:49:11;18.50;87.60
77829;DHT22;67019;51.034;3.728;2023-05-21T08:51:39;18.60;87.40
77829;DHT22;67019;51.034;3.728;2023-05-21T08:54:08;18.60;87.30
77829;DHT22;67019;51.034;3.728;2023-05-21T08:56:43;18.70;86.50
77829;DHT22;67019;51.034;3.728;2023-05-21T08:59:16;18.60;86.40
77829;DHT22;67019;51.034;3.728;2023-05-21T09:01:45;18.50;87.60
77829;DHT22;67019;51.034;3.728;2023-05-21T09:04:14;18.50;86.60
77829;DHT22;67019;51.034;3.728;2023-05-21T09:06:43;18.60;87.30
77829;DHT22;67019;51.034;3.728;2023-05-21T09:09:20;18.60;87.10
77829;DHT22;67019;51.034;3.728;2023-05-21T09:11:46;18.70;87.30
77829;DHT22;67019;51.034;3.728;2023-05-21T09:14:16;18.60;87.40
77829;DHT22;67019;51.034;3.728;2023-05-21T09:16:45;18.70;87.20
77829;DHT22;67019;51.034;3.728;2023-05-21T09:19:18;18.70;87.20
77829;DHT22;67019;51.034;3.728;2023-05-21T09:21:46;18.80;85.60
77829;DHT22;67019;51.034;3.728;2023-05-21T09:24:16;18.80;86.40
77829;DHT22;67019;51.034;3.728;2023-05-21T09:26:44;19.10;85.80
77829;DHT22;67019;51.034;3.728;2023-05-21T09:29:12;18.70;83.30
77829;DHT22;67019;51.034;3.728;2023-05-21T09:31:46;19.40;84.60
77829;DHT22;67019;51.034;3.728;2023-05-21T09:34:13;19.60;83.50
77829;DHT22;67019;51.034;3.728;2023-05-21T09:36:41;19.80;83.60
77829;DHT22;67019;51.034;3.728;2023-05-21T09:39:10;19.80;83.30
77829;DHT22;67019;51.034;3.728;2023-05-21T09:41:41;19.90;81.40
77829;DHT22;67019;51.034;3.728;2023-05-21T09:44:09;19.90;82.60
77829;DHT22;67019;51.034;3.728;2023-05-21T09:46:39;20.10;82.30
77829;DHT22;67019;51.034;3.728;2023-05-21T09:49:27;20.10;81.40
77829;DHT22;67019;51.034;3.728;2023-05-21T09:51:42;20.00;82.00
77829;DHT22;67019;51.034;3.728;2023-05-21T09:54:10;20.00;82.40
77829;DHT22;67019;51.034;3.728;2023-05-21T09:56:39;20.00;83.00
77829;DHT22;67019;51.034;3.728;2023-05-21T09:59:06;20.20;82.60
77829;DHT22;67019;51.034;3.728;2023-05-21T10:01:34;20.30;81.50
77829;DHT22;67019;51.034;3.728;2023-05-21T10:04:07;20.00;83.00
77829;DHT22;67019;51.034;3.728;2023-05-21T10:06:42;19.50;82.80
77829;DHT22;67019;51.034;3.728;2023-05-21T10:09:10;20.50;81.50
77829;DHT22;67019;51.034;3.728;2023-05-21T10:11:39;20.50;81.10
77829;DHT22;67019;51.034;3.728;2023-05-21T10:14:18;20.70;81.20
77829;DHT22;67019;51.034;3.728;2023-05-21T10:16:46;20.60;81.00
77829;DHT22;67019;51.034;3.728;2023-05-21T10:19:15;20.70;80.70
77829;DHT22;67019;51.034;3.728;2023-05-21T10:21:43;20.70;80.60
77829;DHT22;67019;51.034;3.728;2023-05-21T10:24:12;20.90;80.50
77829;DHT22;67019;51.034;3.728;2023-05-21T10:26:42;20.70;81.20
77829;DHT22;67019;51.034;3.728;2023-05-21T10:29:11;20.70;81.10
77829;DHT22;67019;51.034;3.728;2023-05-21T10:31:38;19.90;80.80
77829;DHT22;67019;51.034;3.728;2023-05-21T10:34:06;20.70;81.30
77829;DHT22;67019;51.034;3.728;2023-05-21T10:36:35;20.30;82.40
77829;DHT22;67019;51.034;3.728;2023-05-21T10:39:05;20.20;83.20
77829;DHT22;67019;51.034;3.728;2023-05-21T10:41:38;20.20;83.50
77829;DHT22;67019;51.034;3.728;2023-05-21T10:49:52;20.60;82.00
77829;DHT22;67019;51.034;3.728;2023-05-21T11:00:35;20.30;82.70
77829;DHT22;67019;51.034;3.728;2023-05-21T11:03:03;20.30;82.40
77829;DHT22;67019;51.034;3.728;2023-05-21T11:05:50;20.30;83.30
77829;DHT22;67019;51.034;3.728;2023-05-21T11:08:26;20.50;82.50
77829;DHT22;67019;51.034;3.728;2023-05-21T11:10:54;20.60;81.90
77829;DHT22;67019;51.034;3.728;2023-05-21T11:13:24;21.10;81.30
77829;DHT22;67019;51.034;3.728;2023-05-21T11:21:09;21.80;77.70
77829;DHT22;67019;51.034;3.728;2023-05-21T11:24:00;21.60;78.70
77829;DHT22;67019;51.034;3.728;2023-05-21T11:29:15;21.30;79.90
77829;DHT22;67019;51.034;3.728;2023-05-21T11:31:47;21.20;80.30
77829;DHT22;67019;51.034;3.728;2023-05-21T11:34:20;21.90;78.20
77829;DHT22;67019;51.034;3.728;2023-05-21T11:36:51;22.10;77.20
77829;DHT22;67019;51.034;3.728;2023-05-21T11:39:20;22.40;77.00
77829;DHT22;67019;51.034;3.728;2023-05-21T11:42:01;22.40;76.40
77829;DHT22;67019;51.034;3.728;2023-05-21T11:44:40;22.10;77.00
77829;DHT22;67019;51.034;3.728;2023-05-21T11:47:09;22.10;76.50
77829;DHT22;67019;51.034;3.728;2023-05-21T11:49:37;21.90;77.80
77829;DHT22;67019;51.034;3.728;2023-05-21T11:52:09;22.90;78.40
77829;DHT22;67019;51.034;3.728;2023-05-21T11:54:42;21.90;77.90
77829;DHT22;67019;51.034;3.728;2023-05-21T11:57:14;21.90;76.80
77829;DHT22;67019;51.034;3.728;2023-05-21T11:59:42;21.90;77.50
77829;DHT22;67019;51.034;3.728;2023-05-21T12:02:14;21.80;78.00
77829;DHT22;67019;51.034;3.728;2023-05-21T12:04:43;21.50;79.30
77829;DHT22;67019;51.034;3.728;2023-05-21T12:07:12;21.30;80.80
77829;DHT22;67019;51.034;3.728;2023-05-21T12:09:45;21.50;79.40
77829;DHT22;67019;51.034;3.728;2023-05-21T12:12:18;21.40;78.80
77829;DHT22;67019;51.034;3.728;2023-05-21T12:14:53;21.40;78.70
77829;DHT22;67019;51.034;3.728;2023-05-21T12:17:21;21.40;79.50
77829;DHT22;67019;51.034;3.728;2023-05-21T12:19:49;21.30;79.90
77829;DHT22;67019;51.034;3.728;2023-05-21T12:22:20;21.20;80.20
77829;DHT22;67019;51.034;3.728;2023-05-21T12:24:49;20.90;80.80
77829;DHT22;67019;51.034;3.728;2023-05-21T12:27:16;20.90;81.40
77829;DHT22;67019;51.034;3.728;2023-05-21T12:29:47;20.70;81.90
77829;DHT22;67019;51.034;3.728;2023-05-21T12:32:14;20.60;82.20
77829;DHT22;67019;51.034;3.728;2023-05-21T12:34:50;20.50;82.70
77829;DHT22;67019;51.034;3.728;2023-05-21T12:39:53;20.50;82.80
77829;DHT22;67019;51.034;3.728;2023-05-21T12:42:28;20.40;84.30
77829;DHT22;67019;51.034;3.728;2023-05-21T12:44:57;20.40;84.10
77829;DHT22;67019;51.034;3.728;2023-05-21T12:47:26;20.30;84.80
77829;DHT22;67019;51.034;3.728;2023-05-21T12:49:57;20.00;85.90
77829;DHT22;67019;51.034;3.728;2023-05-21T12:52:25;20.20;85.90
77829;DHT22;67019;51.034;3.728;2023-05-21T12:54:54;20.20;86.30
77829;DHT22;67019;51.034;3.728;2023-05-21T12:57:24;20.30;86.00
77829;DHT22;67019;51.034;3.728;2023-05-21T12:59:57;20.60;83.90
77829;DHT22;67019;51.034;3.728;2023-05-21T13:02:39;20.60;84.40
77829;DHT22;67019;51.034;3.728;2023-05-21T13:05:16;20.70;83.50
77829;DHT22;67019;51.034;3.728;2023-05-21T13:07:38;20.70;84.30
77829;DHT22;67019;51.034;3.728;2023-05-21T13:10:06;20.60;84.70
77829;DHT22;67019;51.034;3.728;2023-05-21T13:12:34;20.70;84.20
77829;DHT22;67019;51.034;3.728;2023-05-21T13:15:03;21.00;83.60
77829;DHT22;67019;51.034;3.728;2023-05-21T13:17:33;21.40;82.10
77829;DHT22;67019;51.034;3.728;2023-05-21T13:20:11;21.40;81.70
77829;DHT22;67019;51.034;3.728;2023-05-21T13:22:40;21.40;81.40
77829;DHT22;67019;51.034;3.728;2023-05-21T13:25:08;21.40;81.90
77829;DHT22;67019;51.034;3.728;2023-05-21T13:27:37;21.40;81.60
77829;DHT22;67019;51.034;3.728;2023-05-21T13:30:06;21.30;82.10
77829;DHT22;67019;51.034;3.728;2023-05-21T13:32:34;21.30;82.20
77829;DHT22;67019;51.034;3.728;2023-05-21T13:35:02;21.50;81.10
77829;DHT22;67019;51.034;3.728;2023-05-21T13:37:30;21.60;80.50
77829;DHT22;67019;51.034;3.728;2023-05-21T13:39:58;21.90;80.10
77829;DHT22;67019;51.034;3.728;2023-05-21T13:42:25;22.20;79.10
77829;DHT22;67019;51.034;3.728;2023-05-21T13:44:52;22.40;78.20
77829;DHT22;67019;51.034;3.728;2023-05-21T13:47:20;22.80;77.10
77829;DHT22;67019;51.034;3.728;2023-05-21T13:49:48;23.00;76.20
77829;DHT22;67019;51.034;3.728;2023-05-21T13:52:15;22.90;76.20
77829;DHT22;67019;51.034;3.728;2023-05-21T13:54:43;22.70;76.40
77829;DHT22;67019;51.034;3.728;2023-05-21T13:57:11;23.00;76.00
77829;DHT22;67019;51.034;3.728;2023-05-21T13:59:38;22.80;76.80
77829;DHT22;67019;51.034;3.728;2023-05-21T14:02:07;22.90;76.00
77829;DHT22;67019;51.034;3.728;2023-05-21T14:04:35;22.80;76.90
77829;DHT22;67019;51.034;3.728;2023-05-21T14:07:04;22.70;76.80
77829;DHT22;67019;51.034;3.728;2023-05-21T14:09:32;22.60;77.10
77829;DHT22;67019;51.034;3.728;2023-05-21T14:11:59;22.70;76.90
77829;DHT22;67019;51.034;3.728;2023-05-21T14:14:27;23.20;75.50
77829;DHT22;67019;51.034;3.728;2023-05-21T14:16:55;23.30;74.70
77829;DHT22;67019;51.034;3.728;2023-05-21T14:19:27;24.00;73.30
77829;DHT22;67019;51.034;3.728;2023-05-21T14:22:02;24.70;70.50
77829;DHT22;67019;51.034;3.728;2023-05-21T14:24:30;24.80;69.40
77829;DHT22;67019;51.034;3.728;2023-05-21T14:27:05;24.00;71.80
77829;DHT22;67019;51.034;3.728;2023-05-21T14:29:29;23.50;73.70
77829;DHT22;67019;51.034;3.728;2023-05-21T14:31:58;23.20;75.70
77829;DHT22;67019;51.034;3.728;2023-05-21T14:34:26;23.10;74.30
77829;DHT22;67019;51.034;3.728;2023-05-21T14:36:53;22.60;76.00
77829;DHT22;67019;51.034;3.728;2023-05-21T14:39:23;22.10;78.10
77829;DHT22;67019;51.034;3.728;2023-05-21T14:41:50;22.10;78.30
77829;DHT22;67019;51.034;3.728;2023-05-21T14:44:18;22.10;77.90
77829;DHT22;67019;51.034;3.728;2023-05-21T14:46:45;22.40;76.00
77829;DHT22;67019;51.034;3.728;2023-05-21T14:49:13;22.40;76.80
77829;DHT22;67019;51.034;3.728;2023-05-21T14:51:40;22.90;74.80
77829;DHT22;67019;51.034;3.728;2023-05-21T14:54:09;22.50;76.40
77829;DHT22;67019;51.034;3.728;2023-05-21T14:56:36;22.50;76.00
77829;DHT22;67019;51.034;3.728;2023-05-21T14:59:04;22.90;75.00
77829;DHT22;67019;51.034;3.728;2023-05-21T15:01:32;23.90;72.00
77829;DHT22;67019;51.034;3.728;2023-05-21T15:03:59;24.30;70.40
77829;DHT22;67019;51.034;3.728;2023-05-21T15:06:28;24.50;69.50
77829;DHT22;67019;51.034;3.728;2023-05-21T15:08:56;24.70;69.50
77829;DHT22;67019;51.034;3.728;2023-05-21T15:11:25;24.70;68.70
77829;DHT22;67019;51.034;3.728;2023-05-21T15:13:52;24.20;69.60
77829;DHT22;67019;51.034;3.728;2023-05-21T15:16:20;24.00;70.40
77829;DHT22;67019;51.034;3.728;2023-05-21T15:18:48;23.10;72.50
77829;DHT22;67019;51.034;3.728;2023-05-21T15:21:16;22.50;74.90
77829;DHT22;67019;51.034;3.728;2023-05-21T15:23:43;22.00;76.20
77829;DHT22;67019;51.034;3.728;2023-05-21T15:26:11;22.20;76.00
77829;DHT22;67019;51.034;3.728;2023-05-21T15:28:38;23.10;73.30
77829;DHT22;67019;51.034;3.728;2023-05-21T15:31:06;23.60;71.80
77829;DHT22;67019;51.034;3.728;2023-05-21T15:33:34;23.90;70.70
77829;DHT22;67019;51.034;3.728;2023-05-21T15:36:02;24.30;69.00
77829;DHT22;67019;51.034;3.728;2023-05-21T15:38:30;24.70;67.90
77829;DHT22;67019;51.034;3.728;2023-05-21T15:40:58;25.20;66.70
77829;DHT22;67019;51.034;3.728;2023-05-21T15:43:25;25.70;65.20
77829;DHT22;67019;51.034;3.728;2023-05-21T15:45:53;25.40;64.50
77829;DHT22;67019;51.034;3.728;2023-05-21T15:48:20;25.00;65.50
77829;DHT22;67019;51.034;3.728;2023-05-21T15:50:48;24.90;65.50
77829;DHT22;67019;51.034;3.728;2023-05-21T15:53:16;24.60;66.70
77829;DHT22;67019;51.034;3.728;2023-05-21T15:56:04;24.90;66.50
77829;DHT22;67019;51.034;3.728;2023-05-21T15:58:31;24.70;68.30
77829;DHT22;67019;51.034;3.728;2023-05-21T16:00:59;24.90;65.90
77829;DHT22;67019;51.034;3.728;2023-05-21T16:03:26;24.90;65.80
77829;DHT22;67019;51.034;3.728;2023-05-21T16:05:54;24.90;65.60
77829;DHT22;67019;51.034;3.728;2023-05-21T16:08:22;24.90;65.30
77829;DHT22;67019;51.034;3.728;2023-05-21T16:10:49;24.70;65.70
77829;DHT22;67019;51.034;3.728;2023-05-21T16:13:17;24.40;66.90